createdAt,value
2019-03-18T00:07:51.089Z,53.41
2019-03-18T00:22:56.802Z,55.70
2019-03-18T00:37:59.359Z,56.65
2019-03-18T00:53:01.924Z,59.30
2019-03-18T01:08:04.488Z,55.88
2019-03-18T01:23:07.457Z,56.64
2019-03-18T01:38:12.020Z,57.87
2019-03-18T01:53:55.255Z,57.18
2019-03-18T02:08:59.041Z,58.09
2019-03-18T02:24:01.588Z,59.29
2019-03-18T02:39:07.431Z,63.47
2019-03-18T02:54:10.041Z,65.29
2019-03-18T03:09:13.685Z,67.75
2019-03-18T03:24:16.234Z,64.94
2019-03-18T03:39:19.365Z,64.72
2019-03-18T03:54:22.694Z,63.40
2019-03-18T04:09:25.507Z,63.39
2019-03-18T04:24:30.064Z,66.52
2019-03-18T04:39:32.634Z,63.58
2019-03-18T04:54:36.302Z,61.03
2019-03-18T05:09:42.092Z,54.04
2019-03-18T05:24:44.660Z,48.62
2019-03-18T05:39:47.216Z,42.55
2019-03-18T05:54:52.589Z,39.55
2019-03-18T06:09:55.156Z,34.58
2019-03-18T06:24:58.944Z,31.89
2019-03-18T06:40:02.631Z,30.66
2019-03-18T06:55:06.017Z,28.29
2019-03-18T07:10:14.325Z,26.68
2019-03-18T07:25:16.904Z,26.59
2019-03-18T07:40:19.459Z,27.16
2019-03-18T07:55:22.122Z,25.09
2019-03-18T08:10:24.708Z,24.24
2019-03-18T08:25:28.864Z,22.02
2019-03-18T08:40:31.463Z,24.08
2019-03-18T08:55:34.894Z,21.14
2019-03-18T09:10:37.461Z,22.66
2019-03-18T09:25:40.039Z,21.17
2019-03-18T09:40:43.694Z,22.49
2019-03-18T09:55:46.760Z,23.57
2019-03-18T10:10:49.996Z,23.58
2019-03-18T10:25:52.567Z,24.04
2019-03-18T10:40:55.990Z,26.76
2019-03-18T10:56:07.288Z,26.81
2019-03-18T11:11:03.176Z,25.44
2019-03-18T11:26:05.736Z,24.84
2019-03-18T11:41:09.081Z,25.38
2019-03-18T11:56:12.321Z,26.44
2019-03-18T12:11:16.392Z,25.95
2019-03-18T12:26:20.449Z,25.33
2019-03-18T12:41:23.000Z,24.43
2019-03-18T12:56:28.445Z,24.18
2019-03-18T13:11:31.392Z,24.28
2019-03-18T13:26:34.858Z,21.32
2019-03-18T13:41:37.718Z,23.91
2019-03-18T13:56:40.370Z,22.98
2019-03-18T14:11:42.943Z,20.91
2019-03-18T14:26:48.107Z,21.73
2019-03-18T14:41:50.946Z,23.13
2019-03-18T14:56:53.510Z,24.45
2019-03-18T15:11:57.448Z,23.83
2019-03-18T15:27:01.332Z,25.48
2019-03-18T15:42:04.391Z,27.55
2019-03-18T15:57:07.105Z,28.84
2019-03-18T16:12:12.375Z,29.68
2019-03-18T16:27:15.034Z,31.53
2019-03-18T16:42:21.573Z,32.46
2019-03-18T16:57:25.138Z,32.68
2019-03-18T17:12:27.785Z,32.84
2019-03-18T17:27:31.914Z,32.46
2019-03-18T17:42:35.214Z,33.10
2019-03-18T17:57:38.482Z,34.04
2019-03-18T18:12:41.112Z,35.33
2019-03-18T18:27:44.118Z,37.52
2019-03-18T18:42:50.113Z,39.20
2019-03-18T18:57:54.118Z,41.06
2019-03-18T19:12:58.525Z,44.07
2019-03-18T19:28:01.730Z,46.25
2019-03-18T19:43:05.208Z,48.63
2019-03-18T19:58:09.947Z,49.28
2019-03-18T20:13:13.558Z,50.28
2019-03-18T20:28:16.161Z,52.30
2019-03-18T20:43:20.593Z,55.17
2019-03-18T20:58:24.357Z,56.14
2019-03-18T21:13:27.935Z,55.49
2019-03-18T21:28:40.693Z,55.94
2019-03-18T21:43:36.874Z,54.77
2019-03-18T21:58:41.191Z,56.71
2019-03-18T22:13:46.481Z,57.86
2019-03-18T22:28:49.242Z,51.31
2019-03-18T22:43:52.645Z,48.77
2019-03-18T22:58:55.618Z,53.84
2019-03-18T23:13:58.254Z,55.25
2019-03-18T23:29:01.841Z,58.41
2019-03-18T23:44:05.424Z,62.79
2019-03-18T23:59:11.392Z,64.15
